Amberg, Wisconsin
Current Conditions -  °F | °C
As of 8:54 PM on Friday 31 Oct 2014 (Local Time) from KIMT Reporting Station
Overcast Overcast  
Wind Chill: 20°   Ceiling: 3800
Heat Index: 31°   Visibility: 10mi
Dew Point: 18°   Wind: 15mph
Humidity: 59%   Direction: 340°NNW
Pressure: 30.43"   Gusts: 22mph
Location:  45.5°N, 87.99°W
Report Text: KIMT 010154Z AUTO 34013G19KT 10SM OVC038 M01/M08 A3043 RMK AO2 SLP321 T10061078
Loading
Personal Weather Stations






























Interactive Weather Map
Tropical Storm Tracking
New forecast layout! Learn more

10-Day Weather Forecast

Advertisements
Track Severe Weather on mobile